createdAt,value
2016-10-03T00:00:45.068Z,90.61
2016-10-03T00:01:45.027Z,90.42
2016-10-03T00:02:44.990Z,90.33
2016-10-03T00:03:44.967Z,90.52
2016-10-03T00:04:44.915Z,90.61
2016-10-03T00:05:44.573Z,90.05
2016-10-03T00:06:44.841Z,90.61
2016-10-03T00:07:44.801Z,90.38
2016-10-03T00:08:44.764Z,90.28
2016-10-03T00:09:44.723Z,90.28
2016-10-03T00:10:44.687Z,90.28
2016-10-03T00:11:44.648Z,90.38
2016-10-03T00:12:44.609Z,90.38
2016-10-03T00:13:44.571Z,90.28
2016-10-03T00:14:44.230Z,90.28
2016-10-03T00:15:44.194Z,90.76
2016-10-03T00:16:44.470Z,90.66
2016-10-03T00:17:44.418Z,90.66
2016-10-03T00:18:44.381Z,90.66
2016-10-03T00:19:44.344Z,90.38
2016-10-03T00:20:44.301Z,90.28
2016-10-03T00:21:44.268Z,90.95
2016-10-03T00:22:44.234Z,90.57
2016-10-03T00:23:44.189Z,90.66
2016-10-03T00:24:43.846Z,90.76
2016-10-03T00:25:43.811Z,90.28
2016-10-03T00:26:44.076Z,90.47
2016-10-03T00:27:44.036Z,90.76
2016-10-03T00:28:43.999Z,91.04
2016-10-03T00:29:43.960Z,90.85
2016-10-03T00:30:43.927Z,90.57
2016-10-03T00:31:43.577Z,90.57
2016-10-03T00:32:43.842Z,90.38
2016-10-03T00:33:43.805Z,90.38
2016-10-03T00:34:43.768Z,90.38
2016-10-03T00:35:43.727Z,90.57
2016-10-03T00:36:43.689Z,90.76
2016-10-03T00:37:43.656Z,90.38
2016-10-03T00:38:43.613Z,91.04
2016-10-03T00:39:43.573Z,90.57
2016-10-03T00:40:43.537Z,90.28
2016-10-03T00:41:43.197Z,90.28
2016-10-03T00:42:43.462Z,90.47
2016-10-03T00:43:43.119Z,90.28
2016-10-03T00:44:43.394Z,90.38
2016-10-03T00:45:43.344Z,90.57
2016-10-03T00:46:43.305Z,90.57
2016-10-03T00:47:43.267Z,90.38
2016-10-03T00:48:43.236Z,90.61
2016-10-03T00:49:43.192Z,90.47
2016-10-03T00:50:42.851Z,89.86
2016-10-03T00:51:43.114Z,90.28
2016-10-03T00:52:43.075Z,90.33
2016-10-03T00:53:43.039Z,89.86
2016-10-03T00:54:42.710Z,89.47
2016-10-03T00:55:42.964Z,89.57
2016-10-03T00:56:42.927Z,89.86
2016-10-03T00:57:42.891Z,89.57
2016-10-03T00:58:42.545Z,89.47
2016-10-03T00:59:42.808Z,89.47
2016-10-03T01:00:42.775Z,89.19
2016-10-03T01:01:42.736Z,89.09
2016-10-03T01:02:42.694Z,89
2016-10-03T01:03:42.657Z,89
2016-10-03T01:04:42.316Z,89.19
2016-10-03T01:05:42.584Z,89.19
2016-10-03T01:06:42.541Z,89
2016-10-03T01:07:42.503Z,88.9
2016-10-03T01:08:42.469Z,89.19
2016-10-03T01:09:42.428Z,89
2016-10-03T01:10:42.089Z,88.81
2016-10-03T01:11:42.351Z,89.28
2016-10-03T01:12:42.313Z,89.09
2016-10-03T01:13:42.275Z,89
2016-10-03T01:14:42.236Z,88.29
2016-10-03T01:15:42.207Z,89
2016-10-03T01:16:42.162Z,89
2016-10-03T01:17:41.831Z,88.81
2016-10-03T01:18:42.084Z,89.19
2016-10-03T01:19:42.046Z,89
2016-10-03T01:20:42.009Z,88.67
2016-10-03T01:21:41.971Z,88.86
2016-10-03T01:22:41.631Z,88.95
2016-10-03T01:23:41.894Z,89.14
2016-10-03T01:24:41.858Z,89.24
2016-10-03T01:25:41.818Z,89.53
2016-10-03T01:26:41.781Z,89.43
2016-10-03T01:27:41.435Z,89.72
2016-10-03T01:28:41.402Z,89.53
2016-10-03T01:29:41.665Z,89.72
2016-10-03T01:30:41.327Z,89.9
2016-10-03T01:31:41.586Z,90.09
2016-10-03T01:32:41.248Z,90.28
2016-10-03T01:33:41.513Z,90.28
2016-10-03T01:34:41.474Z,90.19
2016-10-03T01:35:41.435Z,90.28
2016-10-03T01:36:41.396Z,90.47
2016-10-03T01:37:41.358Z,90.57
2016-10-03T01:38:41.321Z,90.28
2016-10-03T01:39:41.284Z,90.85
2016-10-03T01:40:41.242Z,90.66
2016-10-03T01:41:41.207Z,91.04
2016-10-03T01:42:41.167Z,91.14
2016-10-03T01:43:40.830Z,91.14
2016-10-03T01:44:40.786Z,91.71
2016-10-03T01:45:41.052Z,91.8
2016-10-03T01:46:41.011Z,91.52
2016-10-03T01:47:40.979Z,91.71
2016-10-03T01:48:40.935Z,91.8
2016-10-03T01:49:40.596Z,92.18
2016-10-03T01:50:40.555Z,91.61
2016-10-03T01:51:40.521Z,91.99
2016-10-03T01:52:40.782Z,92.09
2016-10-03T01:53:40.439Z,92.37
2016-10-03T01:54:40.706Z,92.37
2016-10-03T01:55:40.666Z,93.04
2016-10-03T01:56:40.626Z,92.85
2016-10-03T01:57:40.593Z,92.85
2016-10-03T01:58:40.548Z,92.66
2016-10-03T01:59:40.513Z,92.94
2016-10-03T02:00:40.173Z,93.04
2016-10-03T02:01:40.134Z,93.04
2016-10-03T02:02:40.397Z,93.23
2016-10-03T02:03:40.361Z,93.04
2016-10-03T02:04:40.321Z,93.13
2016-10-03T02:05:40.283Z,93.13
2016-10-03T02:06:40.244Z,93.27
2016-10-03T02:07:40.208Z,92.9
2016-10-03T02:08:39.865Z,93.08
2016-10-03T02:09:40.129Z,93.08
2016-10-03T02:10:40.093Z,92.99
2016-10-03T02:11:40.054Z,92.99
2016-10-03T02:12:40.016Z,93.27
2016-10-03T02:13:39.973Z,93.18
2016-10-03T02:14:39.936Z,92.99
2016-10-03T02:15:39.599Z,92.99
2016-10-03T02:16:39.861Z,92.9
2016-10-03T02:17:39.824Z,93.08
2016-10-03T02:18:39.485Z,92.99
2016-10-03T02:19:39.746Z,92.8
2016-10-03T02:20:39.710Z,92.42
2016-10-03T02:21:39.671Z,92.8
2016-10-03T02:22:39.632Z,92.94
2016-10-03T02:23:39.594Z,93.04
2016-10-03T02:24:39.556Z,92.56
2016-10-03T02:25:39.518Z,92.37
2016-10-03T02:26:39.481Z,92.46
2016-10-03T02:27:39.443Z,92.37
2016-10-03T02:28:39.404Z,91.89
2016-10-03T02:29:39.366Z,91.99
2016-10-03T02:30:39.328Z,91.8
2016-10-03T02:31:38.990Z,91.99
2016-10-03T02:32:39.253Z,91.42
2016-10-03T02:33:39.216Z,91.52
2016-10-03T02:34:38.876Z,91.52
2016-10-03T02:35:39.135Z,91.42
2016-10-03T02:36:39.105Z,91.13
2016-10-03T02:37:39.064Z,90.94
2016-10-03T02:38:39.027Z,91.23
2016-10-03T02:39:38.988Z,91.42
2016-10-03T02:40:38.650Z,90.75
2016-10-03T02:41:38.912Z,90.94
2016-10-03T02:42:38.573Z,91.18
2016-10-03T02:43:38.839Z,90.8
2016-10-03T02:44:38.498Z,90.8
2016-10-03T02:45:38.764Z,90.99
2016-10-03T02:46:38.424Z,90.7
2016-10-03T02:47:38.685Z,91.08
2016-10-03T02:48:38.347Z,90.61
2016-10-03T02:49:38.350Z,90.33
2016-10-03T02:50:38.573Z,90.52
2016-10-03T02:51:38.239Z,90.33
2016-10-03T02:52:38.499Z,90.42
2016-10-03T02:53:38.459Z,90.23
2016-10-03T02:54:38.423Z,90.33
2016-10-03T02:55:38.388Z,90.04
2016-10-03T02:56:38.058Z,89.85
2016-10-03T02:57:38.308Z,89.94
2016-10-03T02:58:37.972Z,90.14
2016-10-03T02:59:38.237Z,89.66
2016-10-03T03:00:37.900Z,89.56
2016-10-03T03:01:37.859Z,90.14
2016-10-03T03:02:38.123Z,89.94
2016-10-03T03:03:38.088Z,89.75
2016-10-03T03:04:38.049Z,89.75
2016-10-03T03:05:38.014Z,89.75
2016-10-03T03:06:37.972Z,89.85
2016-10-03T03:07:37.937Z,89.85
2016-10-03T03:08:37.899Z,90.33
2016-10-03T03:09:37.867Z,90.37
2016-10-03T03:10:37.832Z,90.56
2016-10-03T03:11:37.794Z,90.47
2016-10-03T03:12:37.453Z,90.37
2016-10-03T03:13:37.711Z,90.08
2016-10-03T03:14:37.680Z,90.18
2016-10-03T03:15:37.639Z,90.18
2016-10-03T03:16:37.605Z,90.28
2016-10-03T03:17:37.265Z,90.28
2016-10-03T03:18:37.529Z,90.28
2016-10-03T03:19:37.493Z,90.08
2016-10-03T03:20:37.451Z,89.99
2016-10-03T03:21:37.426Z,90.18
2016-10-03T03:22:37.383Z,89.99
2016-10-03T03:23:37.343Z,90.37
2016-10-03T03:24:37.308Z,90.28
2016-10-03T03:25:37.269Z,90.47
2016-10-03T03:26:37.233Z,90.47
2016-10-03T03:27:36.891Z,90.47
2016-10-03T03:28:37.161Z,90.37
2016-10-03T03:29:36.824Z,90.37
2016-10-03T03:30:37.082Z,90.47
2016-10-03T03:31:37.047Z,90.37
2016-10-03T03:32:37.009Z,90.47
2016-10-03T03:33:36.970Z,90.47
2016-10-03T03:34:36.932Z,90.28
2016-10-03T03:35:36.899Z,89.89
2016-10-03T03:36:36.857Z,89.99
2016-10-03T03:37:36.532Z,90.75
2016-10-03T03:38:36.783Z,90.47
2016-10-03T03:39:36.749Z,90.47
2016-10-03T03:40:36.715Z,90.56
2016-10-03T03:41:36.674Z,90.56
2016-10-03T03:42:36.638Z,90.37
2016-10-03T03:43:36.292Z,90.84
2016-10-03T03:44:36.562Z,90.66
2016-10-03T03:45:36.220Z,91.22
2016-10-03T03:46:36.187Z,91.03
2016-10-03T03:47:36.451Z,90.94
2016-10-03T03:48:36.113Z,90.75
2016-10-03T03:49:36.379Z,90.84
2016-10-03T03:50:36.340Z,91.22
2016-10-03T03:51:36.001Z,91.13
2016-10-03T03:52:36.265Z,90.94
2016-10-03T03:53:36.243Z,90.84
2016-10-03T03:54:36.191Z,91.51
2016-10-03T03:55:36.157Z,91.13
2016-10-03T03:56:36.123Z,91.22
2016-10-03T03:57:36.087Z,91.22
2016-10-03T03:58:36.046Z,91.32
2016-10-03T03:59:36.005Z,91.42
2016-10-03T04:00:35.669Z,91.03
2016-10-03T04:01:35.931Z,92.18
2016-10-03T04:02:35.899Z,91.99
2016-10-03T04:03:35.861Z,91.8
2016-10-03T04:04:35.824Z,91.99
2016-10-03T04:05:35.786Z,91.8
2016-10-03T04:06:35.749Z,91.61
2016-10-03T04:07:35.709Z,91.61
2016-10-03T04:08:35.677Z,91.8
2016-10-03T04:09:35.639Z,91.7
2016-10-03T04:10:35.600Z,91.8
2016-10-03T04:11:35.566Z,91.89
2016-10-03T04:12:35.530Z,91.89
2016-10-03T04:13:35.494Z,91.99
2016-10-03T04:14:35.454Z,91.8
2016-10-03T04:15:35.416Z,91.89
2016-10-03T04:16:35.381Z,91.8
2016-10-03T04:17:35.342Z,92.18
2016-10-03T04:18:35.307Z,92.03
2016-10-03T04:19:34.965Z,91.75
2016-10-03T04:20:35.234Z,92.13
2016-10-03T04:21:34.895Z,92.03
2016-10-03T04:22:35.160Z,92.13
2016-10-03T04:23:35.125Z,92.13
2016-10-03T04:24:35.085Z,92.13
2016-10-03T04:25:35.048Z,91.7
2016-10-03T04:26:35.012Z,91.84
2016-10-03T04:27:34.672Z,92.13
2016-10-03T04:28:34.938Z,92.13
2016-10-03T04:29:34.901Z,92.79
2016-10-03T04:30:34.864Z,92.51
2016-10-03T04:31:34.827Z,92.6
2016-10-03T04:32:34.793Z,92.7
2016-10-03T04:33:34.756Z,92.41
2016-10-03T04:34:34.719Z,92.6
2016-10-03T04:35:34.680Z,92.6
2016-10-03T04:36:34.648Z,92.6
2016-10-03T04:37:34.304Z,92.6
2016-10-03T04:38:34.573Z,92.6
2016-10-03T04:39:34.240Z,92.6
2016-10-03T04:40:34.497Z,92.51
2016-10-03T04:41:34.460Z,92.6
2016-10-03T04:42:34.422Z,93.37
2016-10-03T04:43:34.390Z,93.08
2016-10-03T04:44:34.349Z,93.08
2016-10-03T04:45:34.012Z,93.27
2016-10-03T04:46:34.277Z,93.08
2016-10-03T04:47:33.937Z,93.27
2016-10-03T04:48:34.202Z,93.08
2016-10-03T04:49:33.864Z,92.89
2016-10-03T04:50:33.834Z,92.99
2016-10-03T04:51:34.097Z,92.99
2016-10-03T04:52:34.056Z,92.99
2016-10-03T04:53:34.021Z,93.37
2016-10-03T04:54:33.678Z,93.18
2016-10-03T04:55:33.944Z,93.18
2016-10-03T04:56:33.910Z,93.08
2016-10-03T04:57:33.890Z,93.37
2016-10-03T04:58:33.837Z,93.18
2016-10-03T04:59:33.499Z,92.6
2016-10-03T05:00:33.764Z,93.18
2016-10-03T05:01:33.424Z,92.51
2016-10-03T05:02:33.689Z,92.6
2016-10-03T05:03:33.653Z,93.18
2016-10-03T05:04:33.617Z,92.99
2016-10-03T05:05:33.579Z,93.37
2016-10-03T05:06:33.239Z,92.99
2016-10-03T05:07:33.506Z,92.99
2016-10-03T05:08:33.471Z,93.37
2016-10-03T05:09:33.434Z,92.99
2016-10-03T05:10:33.396Z,92.99
2016-10-03T05:11:33.358Z,93.37
2016-10-03T05:12:33.321Z,93.27
2016-10-03T05:13:33.285Z,93.08
2016-10-03T05:14:33.255Z,92.79
2016-10-03T05:15:33.219Z,92.89
2016-10-03T05:16:33.177Z,92.99
2016-10-03T05:17:33.138Z,92.99
2016-10-03T05:18:32.802Z,92.99
2016-10-03T05:19:33.067Z,92.79
2016-10-03T05:20:33.029Z,93.08
2016-10-03T05:21:32.997Z,93.08
2016-10-03T05:23:32.616Z,93.08
2016-10-03T05:24:32.582Z,93.08
2016-10-03T05:25:32.849Z,92.7
2016-10-03T05:26:32.817Z,92.79
2016-10-03T05:27:32.772Z,92.99
2016-10-03T05:28:32.740Z,93.46
2016-10-03T05:29:32.702Z,93.46
2016-10-03T05:30:32.663Z,93.27
2016-10-03T05:31:32.628Z,93.46
2016-10-03T05:32:32.592Z,93.18
2016-10-03T05:33:32.557Z,93.55
2016-10-03T05:34:32.522Z,93.18
2016-10-03T05:35:32.486Z,93.55
2016-10-03T05:36:32.142Z,93.18
2016-10-03T05:37:32.106Z,93.46
2016-10-03T05:38:32.372Z,93.08
2016-10-03T05:39:32.337Z,93.27
2016-10-03T05:40:32.296Z,92.89
2016-10-03T05:41:32.267Z,92.79
2016-10-03T05:42:32.225Z,93.27
2016-10-03T05:43:32.189Z,93.08
2016-10-03T05:44:31.862Z,92.79
2016-10-03T05:45:32.116Z,93.27
2016-10-03T05:46:31.773Z,92.99
2016-10-03T05:47:32.043Z,93.46
2016-10-03T05:48:31.702Z,93.08
2016-10-03T05:49:31.968Z,93.08
2016-10-03T05:50:31.931Z,92.89
2016-10-03T05:51:31.895Z,93.08
2016-10-03T05:52:31.857Z,92.79
2016-10-03T05:53:31.820Z,93.08
2016-10-03T05:54:31.786Z,92.99
2016-10-03T05:55:31.448Z,92.89
2016-10-03T05:56:31.712Z,92.89
2016-10-03T05:57:31.676Z,92.89
2016-10-03T05:58:31.339Z,93.08
2016-10-03T05:59:31.302Z,92.51
2016-10-03T06:00:31.269Z,92.6
2016-10-03T06:01:31.529Z,92.6
2016-10-03T06:02:31.490Z,92.41
2016-10-03T06:03:31.456Z,92.32
2016-10-03T06:04:31.116Z,92.32
2016-10-03T06:05:31.391Z,92.79
2016-10-03T06:06:31.353Z,92.51
2016-10-03T06:07:31.309Z,91.7
2016-10-03T06:08:31.272Z,92.13
2016-10-03T06:09:31.236Z,92.36
2016-10-03T06:10:31.200Z,91.99
2016-10-03T06:11:31.166Z,91.99
2016-10-03T06:12:31.129Z,92.18
2016-10-03T06:13:31.089Z,92.18
2016-10-03T06:14:31.052Z,92.08
2016-10-03T06:15:31.017Z,91.6
2016-10-03T06:16:30.677Z,91.79
2016-10-03T06:17:30.945Z,91.7
2016-10-03T06:18:30.907Z,91.7
2016-10-03T06:19:30.868Z,92.18
2016-10-03T06:20:30.831Z,91.22
2016-10-03T06:21:30.799Z,91.31
2016-10-03T06:22:30.459Z,91.22
2016-10-03T06:23:30.722Z,91.41
2016-10-03T06:24:30.688Z,91.13
2016-10-03T06:25:30.651Z,91.03
2016-10-03T06:26:30.314Z,90.84
2016-10-03T06:27:30.579Z,91.22
2016-10-03T06:28:30.544Z,91.13
2016-10-03T06:29:30.202Z,91.22
2016-10-03T06:30:30.469Z,91.22
2016-10-03T06:31:30.433Z,91.22
2016-10-03T06:32:30.399Z,90.84
2016-10-03T06:33:30.359Z,90.56
2016-10-03T06:34:30.020Z,90.75
2016-10-03T06:35:30.288Z,90.65
2016-10-03T06:36:30.251Z,90.75
2016-10-03T06:37:29.913Z,90.89
2016-10-03T06:38:29.878Z,90.84
2016-10-03T06:39:30.140Z,91.22
2016-10-03T06:40:30.103Z,91.22
2016-10-03T06:41:30.072Z,90.99
2016-10-03T06:42:30.032Z,91.6
2016-10-03T06:43:29.997Z,91.56
2016-10-03T06:44:29.960Z,91.6
2016-10-03T06:45:29.925Z,91.22
2016-10-03T06:46:29.895Z,91.22
2016-10-03T06:47:29.849Z,91.41
2016-10-03T06:48:29.813Z,91.13
2016-10-03T06:49:29.779Z,90.89
2016-10-03T06:50:29.436Z,90.89
2016-10-03T06:51:29.712Z,89.75
2016-10-03T06:52:29.667Z,89.5
2016-10-03T06:53:29.632Z,88.59
2016-10-03T06:54:29.596Z,87.35
2016-10-03T06:55:29.255Z,86.06
2016-10-03T06:56:29.522Z,84.86
2016-10-03T06:57:29.184Z,83
2016-10-03T06:58:29.454Z,81.6
2016-10-03T06:59:29.413Z,80.84
2016-10-03T07:00:29.077Z,79.44
2016-10-03T07:01:29.345Z,78.97
2016-10-03T07:02:29.309Z,78.58
2016-10-03T07:03:29.275Z,77.92
2016-10-03T07:04:29.245Z,77.25
2016-10-03T07:05:28.907Z,76.48
2016-10-03T07:06:29.170Z,76.2
2016-10-03T07:07:29.159Z,75.62
2016-10-03T07:08:29.104Z,75.37
2016-10-03T07:09:29.072Z,74.22
2016-10-03T07:10:29.037Z,73.75
2016-10-03T07:11:29.003Z,73.02
2016-10-03T07:12:28.968Z,72.44
2016-10-03T07:13:28.940Z,71.77
2016-10-03T07:14:28.905Z,71.11
2016-10-03T07:15:28.871Z,71.3
2016-10-03T07:16:28.836Z,70.76
2016-10-03T07:17:28.815Z,70.37
2016-10-03T07:18:28.770Z,69.8
2016-10-03T07:19:28.442Z,70.18
2016-10-03T07:20:28.704Z,69.6
2016-10-03T07:21:28.676Z,68.74
2016-10-03T07:22:28.639Z,68.01
2016-10-03T07:23:28.311Z,66.89
2016-10-03T07:24:28.573Z,65.59
2016-10-03T07:25:28.545Z,64.92
2016-10-03T07:26:28.511Z,63.86
2016-10-03T07:27:28.480Z,62.55
2016-10-03T07:28:28.448Z,59.8
2016-10-03T07:29:28.414Z,58.22
2016-10-03T07:30:28.384Z,57.58
2016-10-03T07:31:28.365Z,57
2016-10-03T07:32:28.317Z,56.62
2016-10-03T07:33:28.294Z,56.52
2016-10-03T07:34:27.960Z,56.49
2016-10-03T07:35:28.227Z,56.59
2016-10-03T07:36:28.204Z,56.68
2016-10-03T07:37:27.867Z,54.86
2016-10-03T07:38:27.847Z,53.28
2016-10-03T07:39:28.105Z,53.21
2016-10-03T07:40:28.080Z,53.11
2016-10-03T07:41:28.058Z,51.96
2016-10-03T07:42:27.712Z,51.55
2016-10-03T07:43:27.988Z,50.42
2016-10-03T07:44:27.958Z,49.15
2016-10-03T07:45:27.926Z,48.3
2016-10-03T07:46:27.898Z,47.82
2016-10-03T07:47:27.870Z,47.82
2016-10-03T07:48:27.840Z,47.7
2016-10-03T07:49:27.811Z,48.38
2016-10-03T07:50:27.781Z,48.25
2016-10-03T07:51:27.765Z,48.25
2016-10-03T07:52:27.422Z,49.22
2016-10-03T07:53:27.696Z,49.29
2016-10-03T07:54:27.363Z,49.19
2016-10-03T07:55:27.334Z,47.75
2016-10-03T07:56:27.611Z,44.83
2016-10-03T07:57:27.275Z,41.61
2016-10-03T07:58:27.551Z,38.6
2016-10-03T07:59:27.523Z,37.4
2016-10-03T08:00:27.498Z,37.81
2016-10-03T08:01:27.165Z,38.17
2016-10-03T08:02:27.440Z,38.25
2016-10-03T08:03:27.411Z,36.72
2016-10-03T08:04:27.382Z,34.81
2016-10-03T08:05:27.052Z,33.59
2016-10-03T08:06:27.329Z,31.79
2016-10-03T08:07:27.018Z,30.46
2016-10-03T08:08:27.275Z,28.93
2016-10-03T08:09:27.251Z,27.5
2016-10-03T08:10:27.224Z,26.25
2016-10-03T08:11:27.203Z,24.03
2016-10-03T08:12:27.174Z,22.58
2016-10-03T08:13:27.150Z,22.49
2016-10-03T08:14:27.129Z,21.81
2016-10-03T08:15:27.099Z,21.42
2016-10-03T08:16:27.130Z,21.44
2016-10-03T08:17:27.053Z,21.15
2016-10-03T08:18:26.730Z,20.96
2016-10-03T08:19:26.705Z,20.94
2016-10-03T08:20:26.986Z,21.11
2016-10-03T08:21:26.962Z,21.2
2016-10-03T08:22:26.937Z,21.96
2016-10-03T08:23:26.613Z,22.53
2016-10-03T08:24:26.888Z,22.14
2016-10-03T08:25:26.870Z,22.25
2016-10-03T08:26:26.843Z,21.39
2016-10-03T08:27:26.527Z,20.04
2016-10-03T08:28:26.505Z,19.46
2016-10-03T08:29:26.776Z,18.7
2016-10-03T08:30:26.464Z,18.13
2016-10-03T08:31:26.730Z,17.55
2016-10-03T08:32:26.708Z,16.68
2016-10-03T08:33:26.384Z,16.1
2016-10-03T08:34:26.663Z,15.81
2016-10-03T08:35:26.645Z,15.92
2016-10-03T08:36:26.327Z,15.34
2016-10-03T08:37:26.597Z,14.36
2016-10-03T08:38:26.576Z,14.47
2016-10-03T08:39:26.558Z,13.97
2016-10-03T08:40:26.533Z,13.79
2016-10-03T08:41:26.513Z,13.69
2016-10-03T08:42:26.490Z,13.4
2016-10-03T08:43:26.174Z,12.41
2016-10-03T08:44:26.154Z,13.11
2016-10-03T08:45:26.430Z,12.72
2016-10-03T08:46:26.412Z,12.04
2016-10-03T08:47:26.087Z,11.55
2016-10-03T08:48:26.369Z,11.74
2016-10-03T08:49:26.351Z,11.65
2016-10-03T08:50:26.332Z,11.84
2016-10-03T08:51:26.306Z,12.23
2016-10-03T08:52:26.289Z,13.1
2016-10-03T08:53:26.270Z,13.67
2016-10-03T08:54:26.251Z,14.53
2016-10-03T08:55:25.927Z,15.11
2016-10-03T08:56:25.906Z,15.88
2016-10-03T08:57:26.188Z,16.55
2016-10-03T08:58:26.164Z,17.22
2016-10-03T08:59:26.143Z,17.88
2016-10-03T09:00:26.126Z,18.65
2016-10-03T09:01:25.801Z,19.03
2016-10-03T09:02:26.081Z,20.18
2016-10-03T09:03:26.063Z,20.66
2016-10-03T09:04:25.737Z,20.84
2016-10-03T09:05:26.017Z,20.66
2016-10-03T09:06:26.002Z,20.17
2016-10-03T09:07:25.673Z,20.56
2016-10-03T09:08:25.649Z,20.86
2016-10-03T09:09:25.927Z,21.25
2016-10-03T09:10:25.603Z,21.72
2016-10-03T09:11:25.884Z,22.59
2016-10-03T09:12:25.860Z,22.38
2016-10-03T09:13:25.838Z,21.99
2016-10-03T09:14:25.812Z,21.51
2016-10-03T09:15:25.792Z,21.5
2016-10-03T09:16:25.769Z,22.49
2016-10-03T09:17:25.746Z,22.58
2016-10-03T09:18:25.725Z,22.47
2016-10-03T09:19:25.400Z,22.86
2016-10-03T09:20:25.675Z,23.04
2016-10-03T09:21:25.351Z,23.03
2016-10-03T09:22:25.632Z,23.32
2016-10-03T09:23:25.613Z,24.38
2016-10-03T09:24:25.281Z,24.27
2016-10-03T09:25:25.568Z,24.84
2016-10-03T09:26:25.532Z,24.73
2016-10-03T09:27:25.514Z,25.51
2016-10-03T09:28:25.491Z,25.6
2016-10-03T09:29:25.462Z,26.07
2016-10-03T09:30:25.437Z,25.67
2016-10-03T09:31:25.410Z,25.3
2016-10-03T09:32:25.084Z,24.15
2016-10-03T09:33:25.362Z,22.63
2016-10-03T09:34:25.339Z,20.72
2016-10-03T09:35:25.010Z,19.87
2016-10-03T09:36:25.294Z,19.58
2016-10-03T09:37:24.966Z,19.68
2016-10-03T09:38:25.245Z,19.67
2016-10-03T09:39:24.916Z,19.87
2016-10-03T09:40:25.193Z,19.09
2016-10-03T09:41:25.175Z,18.13
2016-10-03T09:42:25.148Z,17.66
2016-10-03T09:43:25.120Z,16.7
2016-10-03T09:44:25.099Z,15.83
2016-10-03T09:45:25.079Z,15.16
2016-10-03T09:46:25.053Z,14.2
2016-10-03T09:47:25.038Z,14.6
2016-10-03T09:48:25.008Z,15.28
2016-10-03T09:49:24.987Z,16.34
2016-10-03T09:50:24.963Z,17.58
2016-10-03T09:51:24.942Z,18.63
2016-10-03T09:52:24.918Z,19.49
2016-10-03T09:53:24.896Z,20.45
2016-10-03T09:54:24.876Z,21.59
2016-10-03T09:55:24.550Z,22.83
2016-10-03T09:56:24.826Z,24.17
2016-10-03T09:57:24.501Z,24.83
2016-10-03T09:58:24.480Z,25.78
2016-10-03T09:59:24.756Z,26.82
2016-10-03T10:00:24.733Z,27.68
2016-10-03T10:01:24.711Z,28.81
2016-10-03T10:02:24.683Z,29.38
2016-10-03T10:03:24.657Z,30.14
2016-10-03T10:04:24.333Z,31.28
2016-10-03T10:05:24.607Z,32.04
2016-10-03T10:06:24.594Z,32.89
2016-10-03T10:07:24.271Z,33.36
2016-10-03T10:08:24.530Z,34.32
2016-10-03T10:09:24.203Z,35.08
2016-10-03T10:10:24.478Z,36.02
2016-10-03T10:11:24.148Z,36.79
2016-10-03T10:12:24.424Z,37.54
2016-10-03T10:13:24.399Z,37.91
2016-10-03T10:14:24.373Z,38.78
2016-10-03T10:15:24.345Z,38.59
2016-10-03T10:16:24.014Z,39.24
2016-10-03T10:17:23.984Z,39.33
2016-10-03T10:18:23.968Z,39.43
2016-10-03T10:19:24.241Z,40.2
2016-10-03T10:20:24.217Z,40.39
2016-10-03T10:21:24.184Z,40.08
2016-10-03T10:22:23.852Z,39.99
2016-10-03T10:23:24.126Z,39.99
2016-10-03T10:24:24.103Z,40.56
2016-10-03T10:25:23.764Z,40.18
2016-10-03T10:26:23.781Z,39.99
2016-10-03T10:27:24.004Z,39.53
2016-10-03T10:28:23.993Z,37.81
2016-10-03T10:29:23.949Z,36.69
2016-10-03T10:30:23.916Z,35.58
2016-10-03T10:31:23.889Z,35.28
2016-10-03T10:32:23.863Z,34.26
2016-10-03T10:33:23.834Z,33.48
2016-10-03T10:34:23.804Z,32.81
2016-10-03T10:35:23.775Z,32.52
2016-10-03T10:36:23.454Z,32.52
2016-10-03T10:37:23.721Z,32.33
2016-10-03T10:38:23.393Z,32.91
2016-10-03T10:39:23.364Z,33.18
2016-10-03T10:40:23.335Z,33.57
2016-10-03T10:41:23.609Z,33.65
2016-10-03T10:42:23.582Z,33.74
2016-10-03T10:43:23.554Z,33.09
2016-10-03T10:44:23.523Z,32.41
2016-10-03T10:45:23.496Z,30.69
2016-10-03T10:46:23.472Z,30.12
2016-10-03T10:47:23.459Z,30.24
2016-10-03T10:48:23.416Z,29.75
2016-10-03T10:49:23.388Z,29.83
2016-10-03T10:50:23.359Z,29.64
2016-10-03T10:51:23.334Z,29.16
2016-10-03T10:52:23.002Z,28.98
2016-10-03T10:53:22.975Z,28.7
2016-10-03T10:54:23.252Z,28.13
2016-10-03T10:55:23.221Z,27.46
2016-10-03T10:56:22.897Z,26.41
2016-10-03T10:57:22.868Z,24.79
2016-10-03T10:58:23.142Z,23.55
2016-10-03T10:59:23.116Z,22.62
2016-10-03T11:00:22.787Z,21.47
2016-10-03T11:01:23.062Z,20.8
2016-10-03T11:02:23.039Z,19.94
2016-10-03T11:03:22.708Z,19.27
2016-10-03T11:04:22.992Z,18.98
2016-10-03T11:05:22.663Z,19.08
2016-10-03T11:06:22.943Z,18.88
2016-10-03T11:07:22.913Z,19.16
2016-10-03T11:08:22.889Z,19.64
2016-10-03T11:09:22.563Z,20.21
2016-10-03T11:10:22.839Z,21.16
2016-10-03T11:11:22.816Z,22.31
2016-10-03T11:12:22.491Z,22.6
2016-10-03T11:13:22.765Z,24.33
2016-10-03T11:14:22.740Z,24.98
2016-10-03T11:15:22.717Z,25.47
2016-10-03T11:16:22.388Z,26.23
2016-10-03T11:17:22.667Z,26.68
2016-10-03T11:18:22.641Z,27.35
2016-10-03T11:19:22.312Z,28.13
2016-10-03T11:20:22.590Z,28.78
2016-10-03T11:21:22.562Z,29.45
2016-10-03T11:22:22.554Z,29.93
2016-10-03T11:23:22.206Z,30.01
2016-10-03T11:24:22.485Z,30.87
2016-10-03T11:25:22.458Z,31.14
2016-10-03T11:26:22.126Z,31.91
2016-10-03T11:27:22.402Z,32.76
2016-10-03T11:28:22.383Z,32.95
2016-10-03T11:29:22.344Z,33.63
2016-10-03T11:30:22.324Z,33.63
2016-10-03T11:31:22.292Z,34.38
2016-10-03T11:32:22.273Z,34.77
2016-10-03T11:33:21.942Z,35.33
2016-10-03T11:34:22.216Z,35.42
2016-10-03T11:35:22.187Z,36
2016-10-03T11:36:22.158Z,36.08
2016-10-03T11:37:22.131Z,36.47
2016-10-03T11:38:22.106Z,36.85
2016-10-03T11:39:22.072Z,37.04
2016-10-03T11:40:22.049Z,36.76
2016-10-03T11:41:22.014Z,36.56
2016-10-03T11:42:21.983Z,36.85
2016-10-03T11:43:21.654Z,36.39
2016-10-03T11:44:21.924Z,35.81
2016-10-03T11:45:21.897Z,36
2016-10-03T11:46:21.866Z,35.73
2016-10-03T11:47:21.836Z,35.54
2016-10-03T11:48:21.806Z,35.35
2016-10-03T11:49:21.486Z,34.77
2016-10-03T11:50:21.757Z,34.48
2016-10-03T11:51:21.718Z,34.38
2016-10-03T11:52:21.694Z,34.77
2016-10-03T11:53:21.665Z,35.14
2016-10-03T11:54:21.634Z,35.62
2016-10-03T11:55:21.604Z,35.14
2016-10-03T11:56:21.574Z,35.6
2016-10-03T11:57:21.550Z,36.18
2016-10-03T11:58:21.214Z,36.25
2016-10-03T11:59:21.487Z,36.54
2016-10-03T12:00:21.155Z,36.93
2016-10-03T12:01:21.432Z,37.51
2016-10-03T12:03:21.065Z,37.12
2016-10-03T12:04:21.342Z,36.93
2016-10-03T12:05:21.308Z,36.74
2016-10-03T12:06:20.979Z,36.74
2016-10-03T12:07:20.946Z,36.53
2016-10-03T12:08:20.923Z,36.62
2016-10-03T12:09:21.192Z,36.72
2016-10-03T12:10:21.165Z,37.01
2016-10-03T12:11:21.137Z,37.2
2016-10-03T12:12:21.102Z,37.3
2016-10-03T12:13:21.073Z,37.49
2016-10-03T12:14:21.045Z,37.97
2016-10-03T12:15:21.012Z,38.16
2016-10-03T12:16:20.984Z,38.07
2016-10-03T12:17:20.650Z,38.16
2016-10-03T12:18:20.927Z,38.24
2016-10-03T12:19:20.894Z,38.45
2016-10-03T12:20:20.862Z,38.07
2016-10-03T12:21:20.838Z,38.16
2016-10-03T12:22:20.500Z,38.45
2016-10-03T12:23:20.771Z,38.07
2016-10-03T12:24:20.746Z,37.97
2016-10-03T12:25:20.414Z,37.27
2016-10-03T12:26:20.681Z,37.27
2016-10-03T12:27:20.349Z,37.18
2016-10-03T12:28:20.316Z,37.18
2016-10-03T12:29:20.590Z,37.66
2016-10-03T12:30:20.561Z,37.18
2016-10-03T12:31:20.534Z,36.8
2016-10-03T12:32:20.498Z,36.99
2016-10-03T12:33:20.172Z,37.27
2016-10-03T12:34:20.447Z,37.47
2016-10-03T12:35:20.412Z,37.66
2016-10-03T12:36:20.081Z,38.43
2016-10-03T12:37:20.352Z,38.14
2016-10-03T12:38:20.322Z,39.11
2016-10-03T12:39:19.996Z,39.08
2016-10-03T12:40:20.269Z,39.58
2016-10-03T12:41:20.232Z,39.08
2016-10-03T12:42:20.201Z,39.08
2016-10-03T12:43:20.172Z,39.95
2016-10-03T12:44:20.138Z,39.08
2016-10-03T12:45:19.806Z,38.41
2016-10-03T12:46:20.076Z,38.6
2016-10-03T12:47:20.051Z,38.41
2016-10-03T12:48:20.011Z,38.22
2016-10-03T12:49:19.986Z,37.84
2016-10-03T12:50:19.964Z,38.32
2016-10-03T12:51:19.920Z,38.22
2016-10-03T12:52:19.891Z,39.18
2016-10-03T12:53:19.855Z,39.08
2016-10-03T12:54:19.849Z,39.28
2016-10-03T12:55:19.494Z,39.85
2016-10-03T12:56:19.770Z,39.76
2016-10-03T12:57:19.736Z,39.18
2016-10-03T12:58:19.401Z,38.79